createdAt,value
2019-01-20T00:01:17.488Z,20.83
2019-01-20T00:03:46.593Z,19.53
2019-01-20T00:06:15.651Z,20.53
2019-01-20T00:08:44.624Z,19.23
2019-01-20T00:11:16.746Z,19.60
2019-01-20T00:13:44.428Z,18.57
2019-01-20T00:16:13.563Z,18.87
2019-01-20T00:18:42.591Z,20.43
2019-01-20T00:21:11.762Z,18.47
2019-01-20T00:23:40.817Z,18.27
2019-01-20T00:26:09.871Z,18.17
2019-01-20T00:28:38.893Z,20.10
2019-01-20T00:31:08.023Z,19.70
2019-01-20T00:33:36.960Z,18.40
2019-01-20T00:36:06.005Z,18.63
2019-01-20T00:38:35.089Z,18.07
2019-01-20T00:41:04.181Z,18.67
2019-01-20T00:43:33.276Z,17.83
2019-01-20T00:46:04.920Z,17.70
2019-01-20T00:48:33.944Z,17.53
2019-01-20T00:51:02.960Z,17.60
2019-01-20T00:53:32.004Z,17.50
2019-01-20T00:56:00.944Z,17.20
2019-01-20T00:58:30.024Z,17.17
2019-01-20T01:00:59.632Z,16.83
2019-01-20T01:03:28.662Z,17.47
2019-01-20T01:05:57.893Z,16.90
2019-01-20T01:08:26.905Z,20.23
2019-01-20T01:10:55.989Z,17.10
2019-01-20T01:13:24.953Z,16.10
2019-01-20T01:15:53.990Z,18.87
2019-01-20T01:18:22.944Z,18.00
2019-01-20T01:20:52.051Z,15.07
2019-01-20T01:23:21.210Z,15.63
2019-01-20T01:25:50.191Z,16.13
2019-01-20T01:28:19.229Z,15.17
2019-01-20T01:30:48.324Z,16.07
2019-01-20T01:33:17.443Z,16.67
2019-01-20T01:35:46.508Z,15.60
2019-01-20T01:38:15.860Z,15.53
2019-01-20T01:40:44.900Z,16.50
2019-01-20T01:43:14.201Z,17.33
2019-01-20T01:45:43.268Z,16.10
2019-01-20T01:48:12.363Z,15.70
2019-01-20T01:50:41.320Z,16.00
2019-01-20T01:53:10.449Z,14.47
2019-01-20T01:55:40.226Z,13.93
2019-01-20T01:58:09.180Z,15.40
2019-01-20T02:00:38.334Z,14.70
2019-01-20T02:03:07.424Z,14.63
2019-01-20T02:05:36.491Z,13.90
2019-01-20T02:08:05.501Z,14.67
2019-01-20T02:10:34.828Z,14.70
2019-01-20T02:13:03.928Z,15.73
2019-01-20T02:15:33.072Z,13.87
2019-01-20T02:18:02.243Z,14.57
2019-01-20T02:20:31.277Z,14.50
2019-01-20T02:23:00.284Z,16.20
2019-01-20T02:25:29.327Z,14.37
2019-01-20T02:28:00.034Z,15.10
2019-01-20T02:30:30.793Z,15.43
2019-01-20T02:33:00.065Z,14.63
2019-01-20T02:35:29.240Z,14.93
2019-01-20T02:37:58.316Z,16.00
2019-01-20T02:40:27.416Z,14.73
2019-01-20T02:42:56.460Z,14.00
2019-01-20T02:45:25.408Z,15.47
2019-01-20T02:47:54.481Z,14.87
2019-01-20T02:50:23.501Z,14.33
2019-01-20T02:52:52.476Z,15.00
2019-01-20T02:55:21.643Z,14.27
2019-01-20T02:57:50.724Z,15.33
2019-01-20T03:00:21.654Z,15.60
2019-01-20T03:02:50.649Z,15.27
2019-01-20T03:05:20.869Z,16.30
2019-01-20T03:07:50.055Z,15.67
2019-01-20T03:10:18.992Z,17.33
2019-01-20T03:12:48.093Z,15.87
2019-01-20T03:15:17.124Z,17.07
2019-01-20T03:17:46.093Z,16.67
2019-01-20T03:20:17.758Z,15.67
2019-01-20T03:22:46.854Z,16.77
2019-01-20T03:25:16.574Z,16.30
2019-01-20T03:27:45.588Z,16.00
2019-01-20T03:30:16.833Z,16.90
2019-01-20T03:32:45.903Z,15.50
2019-01-20T03:35:15.817Z,15.70
2019-01-20T03:37:44.866Z,16.07
2019-01-20T03:40:15.459Z,14.83
2019-01-20T03:42:44.480Z,15.87
2019-01-20T03:45:15.840Z,16.63
2019-01-20T03:47:44.901Z,15.80
2019-01-20T03:50:14.981Z,15.80
2019-01-20T03:52:44.019Z,16.50
2019-01-20T03:55:14.911Z,16.33
2019-01-20T03:57:43.902Z,16.07
2019-01-20T04:00:15.769Z,15.73
2019-01-20T04:02:46.663Z,15.27
2019-01-20T04:05:15.611Z,14.97
2019-01-20T04:07:44.634Z,15.13
2019-01-20T04:10:16.154Z,16.27
2019-01-20T04:12:45.331Z,15.07
2019-01-20T04:15:14.533Z,14.67
2019-01-20T04:17:43.505Z,16.87
2019-01-20T04:20:12.660Z,15.87
2019-01-20T04:22:41.671Z,15.80
2019-01-20T04:25:12.177Z,16.03
2019-01-20T04:27:41.151Z,15.83
2019-01-20T04:30:12.340Z,15.87
2019-01-20T04:32:41.572Z,15.40
2019-01-20T04:35:10.769Z,15.07
2019-01-20T04:37:39.783Z,14.27
2019-01-20T04:40:11.834Z,15.40
2019-01-20T04:42:40.908Z,15.17
2019-01-20T04:45:13.470Z,15.83
2019-01-20T04:47:42.601Z,15.77
2019-01-20T04:50:14.131Z,15.33
2019-01-20T04:52:43.251Z,15.27
2019-01-20T04:55:12.775Z,17.47
2019-01-20T04:57:42.398Z,14.97
2019-01-20T05:00:17.161Z,17.90
2019-01-20T05:02:46.103Z,15.20
2019-01-20T05:05:15.051Z,15.60
2019-01-20T05:07:44.181Z,16.60
2019-01-20T05:10:20.370Z,15.63
2019-01-20T05:12:49.448Z,16.40
2019-01-20T05:15:20.514Z,15.90
2019-01-20T05:17:49.477Z,15.57
2019-01-20T05:20:18.740Z,16.27
2019-01-20T05:22:47.802Z,16.10
2019-01-20T05:25:16.819Z,16.07
2019-01-20T05:27:46.668Z,16.47
2019-01-20T05:30:20.952Z,15.00
2019-01-20T05:32:50.028Z,15.90
2019-01-20T05:35:19.163Z,14.30
2019-01-20T05:37:48.278Z,16.03
2019-01-20T05:40:17.784Z,15.63
2019-01-20T05:42:47.076Z,16.40
2019-01-20T05:45:19.587Z,15.77
2019-01-20T05:47:48.688Z,15.70
2019-01-20T05:50:17.777Z,14.93
2019-01-20T05:52:46.871Z,15.40
2019-01-20T05:55:19.031Z,15.03
2019-01-20T05:57:48.061Z,15.60
2019-01-20T06:00:20.101Z,15.80
2019-01-20T06:02:49.244Z,15.80
2019-01-20T06:05:18.264Z,15.73
2019-01-20T06:07:47.303Z,16.80
2019-01-20T06:10:16.496Z,16.53
2019-01-20T06:12:53.499Z,15.23
2019-01-20T06:15:17.656Z,14.83
2019-01-20T06:17:46.717Z,16.50
2019-01-20T06:20:16.132Z,15.13
2019-01-20T06:22:45.166Z,14.40
2019-01-20T06:25:14.224Z,16.13
2019-01-20T06:27:43.896Z,16.07
2019-01-20T06:30:27.092Z,16.93
2019-01-20T06:32:56.032Z,17.70
2019-01-20T06:35:25.064Z,16.83
2019-01-20T06:37:54.125Z,16.50
2019-01-20T06:40:23.177Z,14.70
2019-01-20T06:42:52.156Z,15.43
2019-01-20T06:45:24.330Z,16.40
2019-01-20T06:47:53.351Z,14.67
2019-01-20T06:50:22.539Z,16.93
2019-01-20T06:52:51.695Z,15.67
2019-01-20T06:55:21.780Z,15.97
2019-01-20T06:57:50.959Z,15.33
2019-01-20T07:00:21.833Z,15.33
2019-01-20T07:02:50.775Z,18.73
2019-01-20T07:05:19.797Z,18.53
2019-01-20T07:07:49.067Z,16.73
2019-01-20T07:10:18.480Z,18.73
2019-01-20T07:12:47.496Z,18.00
2019-01-20T07:15:18.366Z,18.93
2019-01-20T07:17:47.316Z,20.47
2019-01-20T07:20:16.285Z,20.30
2019-01-20T07:22:45.276Z,19.27
2019-01-20T07:25:14.141Z,17.70
2019-01-20T07:27:43.113Z,18.90
2019-01-20T07:30:14.789Z,19.80
2019-01-20T07:32:43.740Z,18.77
2019-01-20T07:35:13.587Z,20.50
2019-01-20T07:37:42.616Z,20.07
2019-01-20T07:40:13.179Z,20.17
2019-01-20T07:42:42.280Z,20.40
2019-01-20T07:45:12.593Z,17.87
2019-01-20T07:47:41.599Z,19.70
2019-01-20T07:50:18.815Z,19.47
2019-01-20T07:52:47.905Z,19.50
2019-01-20T07:55:16.848Z,21.23
2019-01-20T07:57:45.912Z,20.20
2019-01-20T08:00:16.917Z,20.20
2019-01-20T08:02:45.880Z,20.37
2019-01-20T08:05:15.072Z,21.23
2019-01-20T08:07:44.175Z,22.80
2019-01-20T08:10:16.040Z,23.17
2019-01-20T08:12:45.004Z,21.70
2019-01-20T08:15:14.176Z,23.47
2019-01-20T08:17:43.280Z,22.77
2019-01-20T08:20:14.633Z,23.17
2019-01-20T08:22:43.819Z,23.13
2019-01-20T08:25:13.552Z,21.93
2019-01-20T08:27:43.473Z,23.60
2019-01-20T08:30:14.845Z,25.60
2019-01-20T08:32:44.013Z,23.93
2019-01-20T08:35:13.520Z,25.03
2019-01-20T08:37:42.588Z,25.87
2019-01-20T08:40:17.580Z,26.50
2019-01-20T08:42:46.704Z,29.27
2019-01-20T08:45:30.946Z,29.67
2019-01-20T08:48:04.265Z,32.13
2019-01-20T08:50:33.231Z,31.27
2019-01-20T08:53:02.292Z,31.20
2019-01-20T08:55:34.727Z,30.43
2019-01-20T08:58:03.670Z,27.90
2019-01-20T09:00:36.467Z,27.90
2019-01-20T09:03:05.837Z,29.07
2019-01-20T09:05:35.159Z,30.43
2019-01-20T09:08:04.768Z,28.90
2019-01-20T09:10:33.700Z,26.77
2019-01-20T09:13:06.519Z,27.27
2019-01-20T09:15:35.927Z,26.53
2019-01-20T09:18:05.148Z,26.77
2019-01-20T09:20:34.178Z,26.53
2019-01-20T09:23:03.231Z,26.30
2019-01-20T09:25:32.180Z,28.00
2019-01-20T09:28:01.145Z,25.13
2019-01-20T09:30:30.297Z,25.40
2019-01-20T09:32:59.320Z,24.63
2019-01-20T09:35:28.685Z,24.00
2019-01-20T09:37:57.824Z,24.33
2019-01-20T09:40:27.449Z,23.47
2019-01-20T09:42:56.843Z,25.33
2019-01-20T09:45:28.945Z,22.70
2019-01-20T09:47:58.219Z,24.27
2019-01-20T09:50:27.277Z,24.67
2019-01-20T09:52:56.384Z,20.87
2019-01-20T09:55:25.408Z,20.77
2019-01-20T09:57:54.464Z,17.37
2019-01-20T10:00:25.252Z,17.63
2019-01-20T10:02:54.408Z,16.93
2019-01-20T10:05:23.468Z,17.60
2019-01-20T10:07:52.484Z,16.77
2019-01-20T10:10:21.489Z,16.80
2019-01-20T10:12:50.625Z,17.05
2019-01-20T10:15:19.673Z,18.25
2019-01-20T10:17:48.825Z,17.75
2019-01-20T10:20:20.676Z,19.05
2019-01-20T10:22:49.703Z,19.67
2019-01-20T10:25:18.841Z,18.57
2019-01-20T10:27:48.013Z,18.40
2019-01-20T10:30:36.628Z,18.80
2019-01-20T10:33:05.808Z,19.27
2019-01-20T10:35:54.053Z,18.77
2019-01-20T10:38:23.165Z,17.87
2019-01-20T10:40:52.104Z,17.42
2019-01-20T10:43:21.448Z,17.62
2019-01-20T10:45:50.460Z,16.85
2019-01-20T10:48:19.561Z,16.00
2019-01-20T10:50:48.532Z,16.62
2019-01-20T10:53:17.467Z,15.18
2019-01-20T10:55:46.787Z,14.55
2019-01-20T10:58:15.765Z,15.05
2019-01-20T11:00:44.708Z,14.53
2019-01-20T11:03:13.674Z,15.98
2019-01-20T11:05:42.708Z,15.60
2019-01-20T11:08:11.757Z,15.32
2019-01-20T11:10:40.707Z,14.68
2019-01-20T11:13:10.641Z,15.78
2019-01-20T11:15:39.571Z,14.38
2019-01-20T11:18:11.657Z,14.80
2019-01-20T11:20:40.640Z,14.73
2019-01-20T11:23:09.831Z,15.23
2019-01-20T11:25:41.434Z,15.18
2019-01-20T11:28:10.828Z,15.50
2019-01-20T11:30:40.089Z,15.23
2019-01-20T11:33:09.447Z,15.45
2019-01-20T11:35:38.725Z,15.18
2019-01-20T11:38:07.811Z,16.50
2019-01-20T11:40:36.892Z,17.23
2019-01-20T11:43:05.925Z,16.73
2019-01-20T11:45:35.412Z,16.25
2019-01-20T11:48:05.181Z,16.15
2019-01-20T11:50:34.224Z,15.65
2019-01-20T11:53:03.147Z,16.32
2019-01-20T11:55:32.224Z,17.02
2019-01-20T11:58:01.160Z,16.73
2019-01-20T12:00:35.447Z,16.40
2019-01-20T12:03:05.164Z,15.75
2019-01-20T12:05:35.472Z,15.15
2019-01-20T12:08:05.069Z,15.43
2019-01-20T12:10:34.128Z,16.32
2019-01-20T12:13:23.672Z,14.58
2019-01-20T12:15:52.718Z,15.00
2019-01-20T12:18:26.069Z,15.00
2019-01-20T12:20:55.105Z,16.25
2019-01-20T12:23:24.212Z,15.25
2019-01-20T12:25:53.707Z,15.65
2019-01-20T12:28:22.799Z,15.63
2019-01-20T12:30:51.932Z,14.33
2019-01-20T12:33:21.063Z,15.03
2019-01-20T12:35:50.091Z,17.40
2019-01-20T12:38:19.091Z,17.23
2019-01-20T12:40:48.620Z,16.85
2019-01-20T12:43:17.670Z,18.77
2019-01-20T12:45:50.401Z,17.35
2019-01-20T12:48:19.408Z,17.92
2019-01-20T12:50:48.436Z,16.85
2019-01-20T12:53:17.696Z,19.12
2019-01-20T12:55:46.781Z,17.37
2019-01-20T12:58:15.742Z,15.58
2019-01-20T13:00:44.750Z,15.18
2019-01-20T13:03:13.804Z,14.58
2019-01-20T13:05:42.895Z,15.83
2019-01-20T13:08:11.901Z,15.65
2019-01-20T13:10:40.935Z,14.53
2019-01-20T13:13:10.115Z,14.18
2019-01-20T13:15:39.338Z,15.55
2019-01-20T13:18:08.356Z,14.55
2019-01-20T13:20:37.284Z,14.95
2019-01-20T13:23:06.315Z,15.43
2019-01-20T13:25:35.448Z,15.00
2019-01-20T13:28:04.660Z,14.00
2019-01-20T13:30:33.604Z,14.18
2019-01-20T13:33:02.620Z,14.78
2019-01-20T13:35:31.749Z,13.65
2019-01-20T13:38:03.519Z,14.20
2019-01-20T13:41:17.757Z,13.75
2019-01-20T13:43:46.808Z,13.72
2019-01-20T13:46:15.896Z,14.95
2019-01-20T13:48:45.141Z,13.28
2019-01-20T13:51:14.376Z,13.83
2019-01-20T13:53:44.581Z,11.55
2019-01-20T13:56:13.616Z,12.40
2019-01-20T13:58:42.629Z,13.30
2019-01-20T14:01:11.648Z,12.45
2019-01-20T14:03:40.696Z,13.78
2019-01-20T14:06:09.707Z,12.53
2019-01-20T14:08:44.223Z,11.73
2019-01-20T14:11:09.775Z,12.28
2019-01-20T14:13:38.784Z,12.63
2019-01-20T14:16:07.728Z,12.45
2019-01-20T14:18:37.640Z,11.22
2019-01-20T14:21:06.876Z,10.10
2019-01-20T14:23:36.048Z,10.72
2019-01-20T14:26:04.988Z,10.25
2019-01-20T14:28:34.760Z,9.90
2019-01-20T14:31:03.849Z,11.33
2019-01-20T14:33:32.771Z,12.35
2019-01-20T14:36:01.752Z,11.97
2019-01-20T14:38:30.692Z,12.68
2019-01-20T14:40:59.773Z,11.88
2019-01-20T14:43:28.944Z,11.83
2019-01-20T14:45:58.148Z,11.20
2019-01-20T14:48:27.131Z,11.75
2019-01-20T14:50:56.344Z,12.13
2019-01-20T14:53:25.399Z,12.47
2019-01-20T14:55:54.404Z,10.68
2019-01-20T14:58:23.450Z,11.70
2019-01-20T15:00:52.918Z,9.50
2019-01-20T15:03:21.845Z,11.08
2019-01-20T15:05:51.141Z,9.43
2019-01-20T15:08:20.151Z,10.60
2019-01-20T15:10:49.108Z,10.63
2019-01-20T15:13:18.233Z,10.65
2019-01-20T15:15:47.404Z,11.18
2019-01-20T15:18:16.668Z,11.83
2019-01-20T15:20:45.984Z,9.53
2019-01-20T15:23:15.067Z,10.85
2019-01-20T15:25:44.006Z,11.55
2019-01-20T15:28:14.402Z,10.75
2019-01-20T15:30:43.752Z,10.60
2019-01-20T15:33:12.873Z,9.95
2019-01-20T15:35:41.920Z,10.98
2019-01-20T15:38:12.710Z,10.38
2019-01-20T15:40:43.293Z,10.45
2019-01-20T15:43:12.400Z,10.63
2019-01-20T15:45:42.395Z,10.60
2019-01-20T15:48:12.648Z,10.48
2019-01-20T15:50:42.820Z,11.50
2019-01-20T15:53:11.813Z,10.60
2019-01-20T15:55:40.884Z,11.95
2019-01-20T15:58:09.924Z,11.28
2019-01-20T16:00:39.272Z,10.75
2019-01-20T16:03:08.508Z,12.30
2019-01-20T16:05:37.512Z,11.73
2019-01-20T16:08:06.537Z,11.48
2019-01-20T16:10:35.621Z,11.68
2019-01-20T16:13:15.072Z,11.63
2019-01-20T16:15:44.271Z,11.70
2019-01-20T16:18:15.033Z,12.15
2019-01-20T16:20:44.128Z,13.68
2019-01-20T16:23:13.085Z,13.95
2019-01-20T16:25:42.343Z,13.13
2019-01-20T16:28:12.084Z,12.85
2019-01-20T16:30:44.375Z,14.00
2019-01-20T16:33:16.353Z,13.60
2019-01-20T16:35:45.942Z,14.03
2019-01-20T16:38:24.046Z,13.78
2019-01-20T16:40:52.943Z,13.55
2019-01-20T16:43:21.886Z,13.95
2019-01-20T16:45:51.071Z,14.60
2019-01-20T16:48:20.032Z,14.63
2019-01-20T16:50:48.983Z,14.40
2019-01-20T16:53:18.067Z,14.70
2019-01-20T16:55:47.028Z,16.33
2019-01-20T16:58:15.978Z,16.83
2019-01-20T17:01:24.795Z,16.20
2019-01-20T17:04:51.409Z,15.37
2019-01-20T17:07:39.672Z,16.90
2019-01-20T17:11:06.205Z,15.30
2019-01-20T17:13:35.184Z,15.50
2019-01-20T17:16:42.450Z,16.20
2019-01-20T17:20:09.132Z,16.17
2019-01-20T17:23:16.480Z,17.57
2019-01-20T17:26:24.012Z,16.93
2019-01-20T17:29:12.172Z,16.70
2019-01-20T17:32:00.504Z,18.40
2019-01-20T17:35:07.828Z,17.33
2019-01-20T17:37:56.076Z,16.90
2019-01-20T17:40:45.235Z,18.10
2019-01-20T17:43:42.376Z,17.93
2019-01-20T17:46:49.941Z,17.10
2019-01-20T17:49:38.021Z,16.73
2019-01-20T17:52:26.586Z,15.53
2019-01-20T17:55:14.738Z,15.47
2019-01-20T17:58:22.413Z,15.33
2019-01-20T18:01:11.656Z,13.73
2019-01-20T18:04:01.881Z,13.10
2019-01-20T18:07:28.453Z,13.00
2019-01-20T18:10:16.776Z,13.47
2019-01-20T18:13:43.315Z,12.70
2019-01-20T18:16:32.064Z,12.20
2019-01-20T18:19:58.714Z,12.47
2019-01-20T18:22:55.771Z,12.87
2019-01-20T18:26:03.109Z,13.37
2019-01-20T18:29:10.633Z,12.67
2019-01-20T18:32:18.285Z,14.00
2019-01-20T18:35:44.817Z,12.83
2019-01-20T18:38:13.848Z,12.23
2019-01-20T18:41:02.177Z,14.57
2019-01-20T18:44:09.452Z,14.90
2019-01-20T18:47:17.083Z,14.53
2019-01-20T18:50:05.761Z,15.67
2019-01-20T18:52:54.096Z,14.90
2019-01-20T18:55:42.160Z,14.60
2019-01-20T18:58:49.559Z,14.43
2019-01-20T19:01:37.881Z,15.77
2019-01-20T19:04:45.423Z,15.53
2019-01-20T19:07:33.489Z,16.57
2019-01-20T19:10:40.839Z,15.90
2019-01-20T19:13:10.162Z,15.27
2019-01-20T19:15:39.459Z,14.00
2019-01-20T19:18:08.601Z,14.47
2019-01-20T19:20:37.570Z,14.47
2019-01-20T19:23:06.611Z,15.90
2019-01-20T19:25:35.572Z,16.17
2019-01-20T19:28:07.996Z,16.37
2019-01-20T19:30:39.576Z,14.67
2019-01-20T19:33:08.628Z,16.20
2019-01-20T19:35:37.633Z,15.07
2019-01-20T19:38:06.607Z,15.23
2019-01-20T19:40:35.848Z,14.53
2019-01-20T19:43:04.989Z,13.10
2019-01-20T19:45:33.976Z,14.43
2019-01-20T19:48:03.032Z,13.57
2019-01-20T19:50:32.080Z,14.37
2019-01-20T19:53:01.173Z,15.07
2019-01-20T19:55:32.263Z,15.57
2019-01-20T19:58:01.184Z,15.17
2019-01-20T20:00:31.391Z,14.37
2019-01-20T20:03:00.363Z,17.53
2019-01-20T20:05:30.576Z,19.67
2019-01-20T20:07:59.875Z,21.87
2019-01-20T20:10:29.053Z,24.73
2019-01-20T20:12:58.564Z,24.50
2019-01-20T20:15:28.259Z,23.60
2019-01-20T20:17:57.522Z,24.37
2019-01-20T20:20:26.631Z,20.80
2019-01-20T20:22:55.915Z,22.97
2019-01-20T20:25:26.032Z,19.40
2019-01-20T20:27:55.436Z,19.23
2019-01-20T20:30:27.119Z,20.37
2019-01-20T20:32:56.155Z,18.50
2019-01-20T20:35:25.207Z,21.93
2019-01-20T20:37:54.397Z,19.53
2019-01-20T20:40:24.271Z,18.63
2019-01-20T20:42:53.296Z,20.13
2019-01-20T20:45:23.434Z,18.33
2019-01-20T20:47:52.584Z,18.60
2019-01-20T20:50:21.643Z,18.33
2019-01-20T20:52:50.938Z,16.50
2019-01-20T20:55:19.976Z,19.30
2019-01-20T20:57:49.007Z,19.23
2019-01-20T21:00:42.420Z,17.50
2019-01-20T21:03:19.109Z,18.47
2019-01-20T21:05:48.164Z,17.93
2019-01-20T21:08:17.139Z,18.20
2019-01-20T21:10:46.193Z,17.63
2019-01-20T21:13:15.274Z,16.27
2019-01-20T21:15:44.500Z,16.83
2019-01-20T21:18:14.696Z,17.47
2019-01-20T21:20:43.777Z,18.23
2019-01-20T21:23:12.969Z,19.17
2019-01-20T21:25:42.000Z,19.43
2019-01-20T21:28:11.497Z,18.67
2019-01-20T21:30:40.523Z,18.70
2019-01-20T21:33:09.536Z,19.90
2019-01-20T21:35:38.679Z,19.43
2019-01-20T21:38:07.772Z,20.90
2019-01-20T21:40:36.797Z,18.30
2019-01-20T21:43:05.928Z,18.93
2019-01-20T21:45:34.992Z,18.80
2019-01-20T21:48:04.354Z,19.90
2019-01-20T21:50:33.545Z,19.33
2019-01-20T21:53:02.708Z,19.73
2019-01-20T21:55:31.828Z,18.53
2019-01-20T21:58:01.044Z,19.10
2019-01-20T22:00:32.869Z,22.13
2019-01-20T22:03:01.905Z,20.63
2019-01-20T22:05:31.099Z,22.43
2019-01-20T22:08:01.036Z,21.50
2019-01-20T22:10:30.196Z,19.93
2019-01-20T22:12:59.139Z,20.30
2019-01-20T22:15:28.236Z,20.53
2019-01-20T22:17:57.289Z,20.77
2019-01-20T22:20:26.359Z,20.23
2019-01-20T22:22:55.402Z,19.27
2019-01-20T22:25:24.413Z,19.30
2019-01-20T22:27:53.425Z,18.77
2019-01-20T22:30:24.476Z,18.20
2019-01-20T22:32:53.604Z,19.83
2019-01-20T22:35:22.777Z,19.77
2019-01-20T22:37:51.888Z,19.10
2019-01-20T22:40:20.928Z,18.60
2019-01-20T22:42:49.930Z,19.93
2019-01-20T22:45:24.152Z,20.70
2019-01-20T22:47:53.364Z,20.13
2019-01-20T22:50:22.410Z,20.30
2019-01-20T22:52:51.532Z,21.50
2019-01-20T22:55:20.726Z,21.67
2019-01-20T22:57:49.828Z,21.17
2019-01-20T23:00:48.000Z,19.70
2019-01-20T23:03:17.293Z,20.90
2019-01-20T23:05:46.696Z,20.43
2019-01-20T23:08:15.849Z,20.83
2019-01-20T23:10:44.860Z,21.93
2019-01-20T23:13:13.983Z,20.27
2019-01-20T23:15:43.059Z,20.57
2019-01-20T23:18:12.016Z,20.17
2019-01-20T23:20:40.976Z,19.33
2019-01-20T23:23:10.095Z,20.07
2019-01-20T23:25:39.250Z,20.67
2019-01-20T23:28:08.360Z,21.30
2019-01-20T23:30:37.484Z,23.33
2019-01-20T23:33:06.420Z,21.93
2019-01-20T23:35:35.440Z,19.80
2019-01-20T23:38:04.601Z,18.77
2019-01-20T23:40:33.818Z,22.07
2019-01-20T23:43:02.832Z,24.27
2019-01-20T23:45:32.184Z,24.70
2019-01-20T23:48:01.147Z,23.53
2019-01-20T23:50:30.272Z,23.87
2019-01-20T23:52:59.482Z,23.60
2019-01-20T23:55:28.508Z,23.03
2019-01-20T23:57:57.529Z,22.07
